createdAt,value
2018-12-11T00:01:30.351Z,4.60
2018-12-11T00:03:59.400Z,6.33
2018-12-11T00:06:28.658Z,5.28
2018-12-11T00:08:56.875Z,5.80
2018-12-11T00:11:25.090Z,5.80
2018-12-11T00:13:53.251Z,4.83
2018-12-11T00:16:21.455Z,4.75
2018-12-11T00:21:46.278Z,6.75
2018-12-11T00:24:14.490Z,6.30
2018-12-11T00:26:49.680Z,4.90
2018-12-11T00:29:23.342Z,4.70
2018-12-11T00:31:51.581Z,5.90
2018-12-11T00:34:21.424Z,5.85
2018-12-11T00:36:55.521Z,5.78
2018-12-11T00:39:23.710Z,5.65
2018-12-11T00:41:51.990Z,7.28
2018-12-11T00:44:20.158Z,5.85
2018-12-11T00:46:48.435Z,6.03
2018-12-11T00:49:28.968Z,6.33
2018-12-11T00:52:00.870Z,8.48
2018-12-11T00:54:34.926Z,5.80
2018-12-11T00:57:03.510Z,4.28
2018-12-11T00:59:37.489Z,6.50
2018-12-11T01:02:06.193Z,6.50
2018-12-11T01:04:34.538Z,5.10
2018-12-11T01:07:02.953Z,4.70
2018-12-11T01:09:31.205Z,5.65
2018-12-11T01:11:59.403Z,5.22
2018-12-11T01:14:27.605Z,5.80
2018-12-11T01:16:55.860Z,4.83
2018-12-11T01:19:24.211Z,5.47
2018-12-11T01:21:52.497Z,4.60
2018-12-11T01:24:20.715Z,5.15
2018-12-11T01:26:48.994Z,5.10
2018-12-11T01:29:17.298Z,5.80
2018-12-11T01:31:45.534Z,4.37
2018-12-11T01:34:14.068Z,5.33
2018-12-11T01:36:43.151Z,3.83
2018-12-11T01:39:11.559Z,4.67
2018-12-11T01:41:39.835Z,6.40
2018-12-11T01:44:24.897Z,6.50
2018-12-11T01:46:53.090Z,4.72
2018-12-11T01:49:25.370Z,4.60
2018-12-11T01:51:53.830Z,4.22
2018-12-11T01:54:22.119Z,4.30
2018-12-11T01:56:50.358Z,4.83
2018-12-11T01:59:18.644Z,3.80
2018-12-11T02:01:47.064Z,4.50
2018-12-11T02:04:15.349Z,3.90
2018-12-11T02:06:43.801Z,4.85
2018-12-11T02:09:12.276Z,6.17
2018-12-11T02:11:40.605Z,4.47
2018-12-11T02:14:08.933Z,5.47
2018-12-11T02:16:37.353Z,6.28
2018-12-11T02:19:05.717Z,7.08
2018-12-11T02:21:33.967Z,6.00
2018-12-11T02:24:02.321Z,6.00
2018-12-11T02:26:30.574Z,4.85
2018-12-11T02:28:58.896Z,4.65
2018-12-11T02:31:27.187Z,6.42
2018-12-11T02:33:55.489Z,5.15
2018-12-11T02:36:23.967Z,5.37
2018-12-11T02:38:52.585Z,7.28
2018-12-11T02:41:21.013Z,6.15
2018-12-11T02:43:49.394Z,4.83
2018-12-11T02:46:17.670Z,5.20
2018-12-11T02:48:46.082Z,5.25
2018-12-11T02:51:14.369Z,4.22
2018-12-11T02:53:42.799Z,4.53
2018-12-11T02:56:11.010Z,4.78
2018-12-11T02:58:39.175Z,4.80
2018-12-11T03:01:07.420Z,4.78
2018-12-11T03:03:35.634Z,4.70
2018-12-11T03:06:04.209Z,4.35
2018-12-11T03:08:32.493Z,5.70
2018-12-11T03:11:00.802Z,4.50
2018-12-11T03:13:28.967Z,4.58
2018-12-11T03:15:57.261Z,4.87
2018-12-11T03:18:25.732Z,4.80
2018-12-11T03:20:54.054Z,5.33
2018-12-11T03:23:22.505Z,4.70
2018-12-11T03:25:50.790Z,6.58
2018-12-11T03:28:19.080Z,5.28
2018-12-11T03:30:47.443Z,5.20
2018-12-11T03:33:15.688Z,4.87
2018-12-11T03:35:43.986Z,4.75
2018-12-11T03:38:12.248Z,4.53
2018-12-11T03:40:44.202Z,6.05
2018-12-11T03:43:12.668Z,4.75
2018-12-11T03:45:40.842Z,4.25
2018-12-11T03:48:09.094Z,3.92
2018-12-11T03:50:37.515Z,4.45
2018-12-11T03:53:05.797Z,5.25
2018-12-11T03:55:34.143Z,5.40
2018-12-11T03:58:02.582Z,6.35
2018-12-11T04:00:31.033Z,4.92
2018-12-11T04:02:59.280Z,4.40
2018-12-11T04:05:27.565Z,3.60
2018-12-11T04:07:55.912Z,4.30
2018-12-11T04:10:24.476Z,5.47
2018-12-11T04:12:52.707Z,7.65
2018-12-11T04:15:21.056Z,4.20
2018-12-11T04:17:49.271Z,4.53
2018-12-11T04:20:17.562Z,5.10
2018-12-11T04:22:45.842Z,5.17
2018-12-11T04:25:14.227Z,4.10
2018-12-11T04:27:42.517Z,4.65
2018-12-11T04:30:10.966Z,4.85
2018-12-11T04:32:39.323Z,4.35
2018-12-11T04:35:07.757Z,3.85
2018-12-11T04:37:35.998Z,3.72
2018-12-11T04:40:05.527Z,3.62
2018-12-11T04:42:34.043Z,4.17
2018-12-11T04:45:02.263Z,5.12
2018-12-11T04:47:32.188Z,5.60
2018-12-11T04:50:00.573Z,3.60
2018-12-11T04:52:28.960Z,4.20
2018-12-11T04:54:57.262Z,5.45
2018-12-11T04:57:25.524Z,3.70
2018-12-11T04:59:54.018Z,4.47
2018-12-11T05:02:22.429Z,3.95
2018-12-11T05:04:50.742Z,4.22
2018-12-11T05:07:18.999Z,3.83
2018-12-11T05:09:47.271Z,4.92
2018-12-11T05:12:19.642Z,4.28
2018-12-11T05:14:47.867Z,4.15
2018-12-11T05:17:16.038Z,4.00
2018-12-11T05:19:44.390Z,3.25
2018-12-11T05:22:12.696Z,3.05
2018-12-11T05:24:40.901Z,3.80
2018-12-11T05:27:09.146Z,5.65
2018-12-11T05:29:37.374Z,4.30
2018-12-11T05:32:05.778Z,4.05
2018-12-11T05:34:34.003Z,3.10
2018-12-11T05:37:02.832Z,4.70
2018-12-11T05:39:31.094Z,3.83
2018-12-11T05:41:59.550Z,3.25
2018-12-11T05:44:27.808Z,4.65
2018-12-11T05:46:56.018Z,4.30
2018-12-11T05:49:24.287Z,5.60
2018-12-11T05:51:52.742Z,3.10
2018-12-11T05:54:21.014Z,3.00
2018-12-11T05:56:49.249Z,2.87
2018-12-11T05:59:17.448Z,3.42
2018-12-11T06:01:45.832Z,3.85
2018-12-11T06:04:14.223Z,3.62
2018-12-11T06:06:42.531Z,2.80
2018-12-11T06:09:11.071Z,2.90
2018-12-11T06:11:39.676Z,4.08
2018-12-11T06:14:08.124Z,2.75
2018-12-11T06:16:36.674Z,2.67
2018-12-11T06:19:05.016Z,2.25
2018-12-11T06:21:33.382Z,2.98
2018-12-11T06:24:01.608Z,2.65
2018-12-11T06:26:29.857Z,3.30
2018-12-11T06:28:58.122Z,2.60
2018-12-11T06:31:26.290Z,2.83
2018-12-11T06:33:54.500Z,3.30
2018-12-11T06:36:22.675Z,2.37
2018-12-11T06:38:50.860Z,2.67
2018-12-11T06:41:19.190Z,2.83
2018-12-11T06:43:47.315Z,2.35
2018-12-11T06:46:15.576Z,2.90
2018-12-11T06:49:02.148Z,2.62
2018-12-11T06:51:30.434Z,2.70
2018-12-11T06:53:58.682Z,3.22
2018-12-11T07:17:45.654Z,4.33
2018-12-11T07:20:15.099Z,2.80
2018-12-11T07:22:43.407Z,2.75
2018-12-11T07:25:11.798Z,2.20
2018-12-11T07:27:41.090Z,2.12
2018-12-11T07:30:09.410Z,2.05
2018-12-11T07:32:37.730Z,2.20
2018-12-11T07:35:06.291Z,2.20
2018-12-11T07:37:34.756Z,2.22
2018-12-11T07:40:03.079Z,2.10
2018-12-11T07:42:37.462Z,1.77
2018-12-11T07:45:06.001Z,2.37
2018-12-11T07:47:34.333Z,3.42
2018-12-11T07:50:11.246Z,3.00
2018-12-11T07:52:51.380Z,2.17
2018-12-11T07:58:16.153Z,2.58
2018-12-11T08:00:44.562Z,2.58
2018-12-11T08:03:12.964Z,2.58
2018-12-11T08:05:41.172Z,2.40
2018-12-11T08:08:13.744Z,2.40
2018-12-11T08:10:42.051Z,2.17
2018-12-11T08:13:10.799Z,2.22
2018-12-11T08:15:39.629Z,2.90
2018-12-11T08:18:08.030Z,2.22
2018-12-11T08:20:36.282Z,2.42
2018-12-11T08:23:04.648Z,3.02
2018-12-11T08:25:32.793Z,3.52
2018-12-11T08:28:01.060Z,2.02
2018-12-11T08:30:29.425Z,1.87
2018-12-11T08:32:57.792Z,2.50
2018-12-11T08:35:26.019Z,2.62
2018-12-11T08:37:54.331Z,3.02
2018-12-11T08:40:22.531Z,4.03
2018-12-11T08:42:50.757Z,2.12
2018-12-11T08:45:18.930Z,3.30
2018-12-11T08:47:47.203Z,2.17
2018-12-11T08:50:15.695Z,2.77
2018-12-11T08:52:44.118Z,2.47
2018-12-11T08:55:12.384Z,1.95
2018-12-11T08:57:41.186Z,2.25
2018-12-11T09:00:09.611Z,1.87
2018-12-11T09:02:38.150Z,1.95
2018-12-11T09:05:06.476Z,2.50
2018-12-11T09:07:34.859Z,1.70
2018-12-11T09:10:03.597Z,2.60
2018-12-11T09:12:31.989Z,2.10
2018-12-11T09:15:00.300Z,2.62
2018-12-11T09:17:29.274Z,2.30
2018-12-11T09:19:57.482Z,1.40
2018-12-11T09:22:25.877Z,2.00
2018-12-11T09:24:54.283Z,1.45
2018-12-11T09:27:22.632Z,1.60
2018-12-11T09:29:50.939Z,1.75
2018-12-11T09:32:19.390Z,2.67
2018-12-11T09:34:47.699Z,1.90
2018-12-11T09:37:16.194Z,2.10
2018-12-11T09:39:45.820Z,1.67
2018-12-11T09:42:14.207Z,1.40
2018-12-11T09:44:42.496Z,1.67
2018-12-11T09:47:11.014Z,1.60
2018-12-11T09:49:39.279Z,1.25
2018-12-11T09:52:07.563Z,1.77
2018-12-11T09:54:35.942Z,1.80
2018-12-11T09:57:04.328Z,1.55
2018-12-11T09:59:32.785Z,2.80
2018-12-11T10:02:01.109Z,1.20
2018-12-11T10:04:29.447Z,2.40
2018-12-11T10:06:57.886Z,1.12
2018-12-11T10:09:26.178Z,1.90
2018-12-11T10:11:54.672Z,1.60
2018-12-11T10:14:22.867Z,4.05
2018-12-11T10:16:51.598Z,2.02
2018-12-11T10:19:19.884Z,2.50
2018-12-11T10:21:48.270Z,1.10
2018-12-11T10:24:16.572Z,1.40
2018-12-11T10:26:45.114Z,1.77
2018-12-11T10:29:13.391Z,1.98
2018-12-11T10:31:41.567Z,1.57
2018-12-11T10:34:09.867Z,1.35
2018-12-11T10:36:38.065Z,1.95
2018-12-11T10:39:07.378Z,1.65
2018-12-11T10:41:35.723Z,2.00
2018-12-11T10:44:04.117Z,1.40
2018-12-11T10:46:33.901Z,1.32
2018-12-11T10:49:02.500Z,1.62
2018-12-11T10:51:30.871Z,1.45
2018-12-11T10:53:59.255Z,2.80
2018-12-11T10:56:27.494Z,1.40
2018-12-11T10:58:55.680Z,1.75
2018-12-11T11:01:32.005Z,1.57
2018-12-11T11:04:00.438Z,2.22
2018-12-11T11:06:29.045Z,1.22
2018-12-11T11:08:57.340Z,1.30
2018-12-11T11:11:25.653Z,1.90
2018-12-11T11:13:54.033Z,1.67
2018-12-11T11:16:22.521Z,1.22
2018-12-11T11:18:50.823Z,1.95
2018-12-11T11:21:25.448Z,2.22
2018-12-11T11:26:32.813Z,2.15
2018-12-11T11:29:02.750Z,1.45
2018-12-11T11:31:35.572Z,2.47
2018-12-11T11:34:07.360Z,1.25
2018-12-11T11:39:33.015Z,1.90
2018-12-11T11:42:02.161Z,1.45
2018-12-11T11:44:30.973Z,1.57
2018-12-11T11:46:59.583Z,2.60
2018-12-11T11:49:35.848Z,1.32
2018-12-11T11:52:04.208Z,1.60
2018-12-11T11:54:32.638Z,2.47
2018-12-11T11:57:01.371Z,1.70
2018-12-11T11:59:29.966Z,1.85
2018-12-11T12:01:58.683Z,1.92
2018-12-11T12:04:30.568Z,1.92
2018-12-11T12:06:58.941Z,2.45
2018-12-11T12:09:27.431Z,1.82
2018-12-11T12:11:55.709Z,1.30
2018-12-11T12:14:24.100Z,1.75
2018-12-11T12:16:56.423Z,1.67
2018-12-11T12:19:27.807Z,1.20
2018-12-11T12:24:51.751Z,2.22
2018-12-11T12:27:26.147Z,2.12
2018-12-11T12:30:02.406Z,1.37
2018-12-11T12:32:30.812Z,1.90
2018-12-11T12:34:59.231Z,2.58
2018-12-11T12:37:27.803Z,1.70
2018-12-11T12:39:56.119Z,2.70
2018-12-11T12:42:24.588Z,1.72
2018-12-11T12:44:52.941Z,2.40
2018-12-11T12:47:21.697Z,2.55
2018-12-11T12:50:02.645Z,2.67
2018-12-11T12:55:28.851Z,2.45
2018-12-11T12:57:58.850Z,1.82
2018-12-11T13:00:27.191Z,1.87
2018-12-11T13:02:55.493Z,2.35
2018-12-11T13:05:23.954Z,2.45
2018-12-11T13:07:55.062Z,2.45
2018-12-11T13:10:23.532Z,2.60
2018-12-11T13:12:51.981Z,2.60
2018-12-11T13:15:20.612Z,2.08
2018-12-11T13:17:48.937Z,2.30
2018-12-11T13:20:17.237Z,3.15
2018-12-11T13:22:45.663Z,2.60
2018-12-11T13:25:14.102Z,2.37
2018-12-11T13:27:42.515Z,2.77
2018-12-11T13:30:10.990Z,2.67
2018-12-11T13:32:39.425Z,2.40
2018-12-11T13:35:08.940Z,2.52
2018-12-11T13:37:37.496Z,2.65
2018-12-11T13:40:06.008Z,2.85
2018-12-11T13:42:34.645Z,2.83
2018-12-11T13:45:03.180Z,2.45
2018-12-11T13:50:34.424Z,2.87
2018-12-11T13:53:09.931Z,2.98
2018-12-11T13:55:38.798Z,2.87
2018-12-11T13:58:13.080Z,3.25
2018-12-11T14:00:41.650Z,2.55
2018-12-11T14:06:09.535Z,2.80
2018-12-11T14:08:56.767Z,3.10
2018-12-11T14:11:25.544Z,2.92
2018-12-11T14:13:57.040Z,3.00
2018-12-11T14:16:33.040Z,3.12
2018-12-11T14:19:06.298Z,2.92
2018-12-11T14:21:34.922Z,2.77
2018-12-11T14:24:09.651Z,2.77
2018-12-11T14:26:38.233Z,2.50
2018-12-11T14:29:14.445Z,3.20
2018-12-11T14:31:44.193Z,2.40
2018-12-11T14:34:12.584Z,3.10
2018-12-11T14:36:41.703Z,2.90
2018-12-11T14:39:10.351Z,3.02
2018-12-11T14:41:38.910Z,3.02
2018-12-11T14:44:07.410Z,3.35
2018-12-11T14:46:35.880Z,2.70
2018-12-11T14:49:04.495Z,3.27
2018-12-11T14:51:32.924Z,2.65
2018-12-11T14:54:01.261Z,3.55
2018-12-11T14:56:30.079Z,3.75
2018-12-11T14:59:00.040Z,2.92
2018-12-11T15:01:28.596Z,2.60
2018-12-11T15:03:56.971Z,2.80
2018-12-11T15:06:25.707Z,3.35
2018-12-11T15:08:57.089Z,3.22
2018-12-11T15:11:25.459Z,3.08
2018-12-11T15:13:53.916Z,2.40
2018-12-11T15:16:22.394Z,2.77
2018-12-11T15:18:50.915Z,3.72
2018-12-11T15:21:19.158Z,2.85
2018-12-11T15:23:47.455Z,2.87
2018-12-11T15:26:19.097Z,3.47
2018-12-11T15:28:48.210Z,3.65
2018-12-11T15:31:16.499Z,2.60
2018-12-11T15:33:44.747Z,5.12
2018-12-11T15:36:12.910Z,3.15
2018-12-11T15:38:41.155Z,3.75
2018-12-11T15:41:09.735Z,3.05
2018-12-11T15:43:38.097Z,3.77
2018-12-11T15:46:07.248Z,3.33
2018-12-11T15:48:35.506Z,3.35
2018-12-11T15:51:03.986Z,4.00
2018-12-11T15:53:32.157Z,3.20
2018-12-11T15:56:00.418Z,2.92
2018-12-11T15:58:28.749Z,3.17
2018-12-11T16:00:56.953Z,3.62
2018-12-11T16:03:25.487Z,4.08
2018-12-11T16:05:53.834Z,3.10
2018-12-11T16:08:22.086Z,3.60
2018-12-11T16:10:50.456Z,3.17
2018-12-11T16:13:18.702Z,3.12
2018-12-11T16:15:48.424Z,3.45
2018-12-11T16:18:16.682Z,3.27
2018-12-11T16:20:44.934Z,2.83
2018-12-11T16:23:13.166Z,2.65
2018-12-11T16:25:41.652Z,3.55
2018-12-11T16:28:09.768Z,3.40
2018-12-11T16:30:37.919Z,3.17
2018-12-11T16:33:06.199Z,2.50
2018-12-11T16:35:34.419Z,3.10
2018-12-11T16:38:02.559Z,2.77
2018-12-11T16:40:30.834Z,3.58
2018-12-11T16:42:59.002Z,3.52
2018-12-11T16:45:27.276Z,4.00
2018-12-11T16:47:55.530Z,3.25
2018-12-11T16:50:23.783Z,2.37
2018-12-11T16:52:51.920Z,3.35
2018-12-11T16:55:20.092Z,4.05
2018-12-11T16:57:48.404Z,3.00
2018-12-11T17:00:20.821Z,3.58
2018-12-11T17:05:47.959Z,2.75
2018-12-11T17:08:20.208Z,2.60
2018-12-11T17:11:00.870Z,3.55
2018-12-11T17:13:35.334Z,3.10
2018-12-11T17:16:09.890Z,2.90
2018-12-11T17:18:41.410Z,2.98
2018-12-11T17:21:23.073Z,3.27
2018-12-11T17:26:49.992Z,3.77
2018-12-11T17:29:23.979Z,3.22
2018-12-11T17:31:58.722Z,3.20
2018-12-11T17:34:27.739Z,2.85
2018-12-11T17:37:01.508Z,3.70
2018-12-11T17:39:46.583Z,3.98
2018-12-11T17:45:20.402Z,2.98
2018-12-11T17:47:54.365Z,3.12
2018-12-11T17:50:22.726Z,2.90
2018-12-11T17:52:50.975Z,3.70
2018-12-11T17:55:19.239Z,3.90
2018-12-11T17:57:47.554Z,2.98
2018-12-11T18:00:16.160Z,3.52
2018-12-11T18:02:44.591Z,3.22
2018-12-11T18:05:13.187Z,3.67
2018-12-11T18:07:41.443Z,3.52
2018-12-11T18:10:09.824Z,3.22
2018-12-11T18:12:38.100Z,2.92
2018-12-11T18:15:06.393Z,2.80
2018-12-11T18:17:34.611Z,3.75
2018-12-11T18:20:02.811Z,2.70
2018-12-11T18:22:31.086Z,2.33
2018-12-11T18:24:59.515Z,2.50
2018-12-11T18:27:27.850Z,3.92
2018-12-11T18:29:55.978Z,3.40
2018-12-11T18:32:25.272Z,2.67
2018-12-11T18:34:53.931Z,3.30
2018-12-11T18:37:22.298Z,2.80
2018-12-11T18:39:56.420Z,3.25
2018-12-11T18:45:20.769Z,2.98
2018-12-11T18:47:50.102Z,2.70
2018-12-11T18:50:21.407Z,3.10
2018-12-11T18:56:08.016Z,3.25
2018-12-11T18:58:42.033Z,3.20
2018-12-11T19:01:23.119Z,2.70
2018-12-11T19:04:10.167Z,2.65
2018-12-11T19:09:34.465Z,2.70
2018-12-11T19:12:03.068Z,3.50
2018-12-11T19:14:37.357Z,3.15
2018-12-11T19:17:12.116Z,2.80
2018-12-11T19:43:06.955Z,2.72
2018-12-11T19:45:41.429Z,2.80
2018-12-11T19:48:23.483Z,2.50
2018-12-11T19:51:13.209Z,2.25
2018-12-11T19:53:52.157Z,2.95
2018-12-11T19:56:27.279Z,2.62
2018-12-11T19:59:04.403Z,2.17
2018-12-11T20:01:38.250Z,2.75
2018-12-11T20:04:13.634Z,2.50
2018-12-11T20:06:48.740Z,3.10
2018-12-11T20:12:20.121Z,3.27
2018-12-11T20:15:04.861Z,2.50
2018-12-11T20:17:47.940Z,3.33
2018-12-11T20:20:27.401Z,3.42
2018-12-11T20:23:05.278Z,3.10
2018-12-11T20:28:46.161Z,3.30
2018-12-11T20:31:35.356Z,3.90
2018-12-11T20:34:22.994Z,3.05
2018-12-11T20:37:05.830Z,4.47
2018-12-11T20:39:44.453Z,4.60
2018-12-11T20:45:35.831Z,4.83
2018-12-11T20:48:12.289Z,4.40
2018-12-11T20:53:50.939Z,4.60
2018-12-11T20:56:26.368Z,5.67
2018-12-11T21:02:17.094Z,5.10
2018-12-11T21:04:53.162Z,5.60
2018-12-11T21:10:31.281Z,4.62
2018-12-11T21:13:11.815Z,4.60
2018-12-11T21:15:57.966Z,4.62
2018-12-11T21:18:37.820Z,3.90
2018-12-11T21:21:11.277Z,5.25
2018-12-11T21:23:58.956Z,5.58
2018-12-11T21:29:25.250Z,4.80
2018-12-11T21:32:00.435Z,4.80
2018-12-11T21:34:35.021Z,4.22
2018-12-11T21:37:05.929Z,4.70
2018-12-11T21:45:37.749Z,4.47
2018-12-11T21:51:02.311Z,5.03
2018-12-11T21:53:46.217Z,4.58
2018-12-11T21:59:17.416Z,4.28
2018-12-11T22:02:07.827Z,3.62
2018-12-11T22:04:48.154Z,4.60
2018-12-11T22:10:15.282Z,5.10
2018-12-11T22:12:44.671Z,4.25
2018-12-11T22:15:17.115Z,4.00
2018-12-11T22:17:46.455Z,4.17
2018-12-11T22:20:14.970Z,4.20
2018-12-11T22:22:43.611Z,4.25
2018-12-11T22:25:12.282Z,4.20
2018-12-11T22:27:40.916Z,3.85
2018-12-11T22:30:10.414Z,5.05
2018-12-11T22:32:39.080Z,3.70
2018-12-11T22:35:09.583Z,4.60
2018-12-11T22:37:38.104Z,4.53
2018-12-11T22:40:06.915Z,4.12
2018-12-11T22:42:35.728Z,4.05
2018-12-11T22:48:01.711Z,4.15
2018-12-11T22:50:30.370Z,4.35
2018-12-11T22:52:58.813Z,4.35
2018-12-11T22:55:43.889Z,3.42
2018-12-11T22:58:12.132Z,3.85
2018-12-11T23:00:46.983Z,3.92
2018-12-11T23:03:26.374Z,3.80
2018-12-11T23:05:55.644Z,4.45
2018-12-11T23:08:24.709Z,4.28
2018-12-11T23:10:53.221Z,4.20
2018-12-11T23:13:21.774Z,3.95
2018-12-11T23:15:50.134Z,4.20
2018-12-11T23:18:24.753Z,4.25
2018-12-11T23:20:53.127Z,3.85
2018-12-11T23:23:31.263Z,4.70
2018-12-11T23:26:07.538Z,5.53
2018-12-11T23:28:38.756Z,4.22
2018-12-11T23:31:24.010Z,3.92
2018-12-11T23:34:00.850Z,4.17
2018-12-11T23:36:35.855Z,4.17
2018-12-11T23:39:09.584Z,4.55
2018-12-11T23:41:48.213Z,4.20
2018-12-11T23:44:23.370Z,3.35
2018-12-11T23:47:05.252Z,4.10
2018-12-11T23:49:41.796Z,3.87
2018-12-11T23:52:16.916Z,4.22
2018-12-11T23:54:55.625Z,3.92
2018-12-11T23:57:30.966Z,4.40
